createdAt,value
2018-11-20T00:01:04.297Z,37.73
2018-11-20T00:03:59.534Z,35.33
2018-11-20T00:07:00.366Z,41.30
2018-11-20T00:09:52.325Z,36.63
2018-11-20T00:12:46.960Z,39.47
2018-11-20T00:15:48.192Z,37.77
2018-11-20T00:18:37.470Z,35.43
2018-11-20T00:21:19.457Z,39.07
2018-11-20T00:24:06.851Z,37.03
2018-11-20T00:27:13.857Z,36.30
2018-11-20T00:30:01.456Z,39.73
2018-11-20T00:32:59.141Z,40.13
2018-11-20T00:35:52.976Z,43.10
2018-11-20T00:38:56.414Z,34.77
2018-11-20T00:41:35.140Z,37.57
2018-11-20T00:44:22.987Z,39.33
2018-11-20T00:47:10.625Z,36.57
2018-11-20T00:50:02.783Z,39.27
2018-11-20T00:52:50.108Z,36.27
2018-11-20T00:56:16.493Z,38.97
2018-11-20T00:59:04.969Z,41.00
2018-11-20T01:01:47.265Z,39.30
2018-11-20T01:04:38.868Z,40.97
2018-11-20T01:07:33.488Z,38.23
2018-11-20T01:10:21.168Z,43.53
2018-11-20T01:13:18.344Z,40.73
2018-11-20T01:16:05.094Z,43.57
2018-11-20T01:18:54.985Z,40.50
2018-11-20T01:21:52.090Z,46.30
2018-11-20T01:24:39.267Z,38.87
2018-11-20T01:27:45.695Z,38.60
2018-11-20T01:30:43.143Z,45.40
2018-11-20T01:33:20.719Z,45.53
2018-11-20T01:36:07.958Z,42.73
2018-11-20T01:39:04.556Z,44.47
2018-11-20T01:42:02.246Z,43.67
2018-11-20T01:44:46.738Z,40.17
2018-11-20T01:47:43.942Z,40.10
2018-11-20T01:50:38.321Z,40.70
2018-11-20T01:53:41.733Z,40.30
2018-11-20T01:56:28.776Z,42.90
2018-11-20T01:59:32.314Z,40.67
2018-11-20T02:02:19.346Z,40.27
2018-11-20T02:05:10.369Z,41.17
2018-11-20T02:07:57.765Z,40.00
2018-11-20T02:10:51.807Z,43.50
2018-11-20T02:14:19.287Z,47.50
2018-11-20T02:17:25.337Z,39.50
2018-11-20T02:20:19.579Z,38.77
2018-11-20T02:23:07.024Z,41.07
2018-11-20T02:26:01.287Z,40.60
2018-11-20T02:28:48.484Z,38.70
2018-11-20T02:31:35.617Z,39.87
2018-11-20T02:34:18.012Z,40.70
2018-11-20T02:37:05.868Z,41.03
2018-11-20T02:39:52.087Z,43.20
2018-11-20T02:42:45.796Z,42.53
2018-11-20T02:45:33.153Z,41.97
2018-11-20T02:48:21.759Z,42.47
2018-11-20T02:51:09.754Z,41.20
2018-11-20T02:53:57.251Z,41.43
2018-11-20T02:56:45.642Z,41.13
2018-11-20T02:59:32.438Z,38.37
2018-11-20T03:02:36.500Z,38.93
2018-11-20T03:05:24.620Z,36.37
2018-11-20T03:08:25.767Z,39.07
2018-11-20T03:11:19.260Z,37.87
2018-11-20T03:14:02.397Z,36.47
2018-11-20T03:16:50.068Z,35.77
2018-11-20T03:19:32.037Z,37.43
2018-11-20T03:22:29.921Z,38.77
2018-11-20T03:25:18.349Z,38.20
2018-11-20T03:28:13.549Z,38.47
2018-11-20T03:31:31.895Z,36.57
2018-11-20T03:34:29.807Z,36.77
2018-11-20T03:37:29.146Z,38.10
2018-11-20T03:40:29.989Z,38.93
2018-11-20T03:43:23.496Z,33.23
2018-11-20T03:46:31.426Z,39.10
2018-11-20T03:49:19.059Z,35.43
2018-11-20T03:51:56.446Z,35.13
2018-11-20T03:54:50.966Z,36.07
2018-11-20T03:57:57.680Z,33.93
2018-11-20T04:00:57.879Z,35.30
2018-11-20T04:03:43.002Z,37.80
2018-11-20T04:06:34.404Z,36.10
2018-11-20T04:09:23.009Z,37.20
2018-11-20T04:12:10.231Z,36.50
2018-11-20T04:14:57.022Z,35.00
2018-11-20T04:17:45.482Z,33.00
2018-11-20T04:20:33.861Z,34.53
2018-11-20T04:23:28.889Z,37.90
2018-11-20T04:26:15.982Z,33.33
2018-11-20T04:29:13.420Z,28.67
2018-11-20T04:32:11.576Z,29.87
2018-11-20T04:34:55.429Z,28.53
2018-11-20T04:37:49.980Z,29.27
2018-11-20T04:40:38.409Z,25.93
2018-11-20T04:43:45.206Z,27.23
2018-11-20T04:46:40.040Z,31.00
2018-11-20T04:49:25.288Z,27.47
2018-11-20T04:52:12.774Z,32.17
2018-11-20T04:55:01.532Z,30.20
2018-11-20T04:57:48.847Z,32.20
2018-11-20T05:00:36.620Z,30.50
2018-11-20T05:03:24.707Z,30.33
2018-11-20T05:06:07.633Z,31.00
2018-11-20T05:08:47.682Z,29.13
2018-11-20T05:11:34.980Z,32.60
2018-11-20T05:14:26.167Z,31.50
2018-11-20T05:17:21.274Z,33.70
2018-11-20T05:20:10.083Z,32.43
2018-11-20T05:22:57.328Z,37.77
2018-11-20T05:25:44.640Z,34.80
2018-11-20T05:28:39.688Z,30.30
2018-11-20T05:31:22.052Z,28.40
2018-11-20T05:34:15.927Z,33.57
2018-11-20T05:37:01.286Z,33.13
2018-11-20T05:39:48.171Z,31.73
2018-11-20T05:42:54.881Z,31.17
2018-11-20T05:45:42.385Z,34.00
2018-11-20T05:48:37.031Z,32.20
2018-11-20T05:51:16.186Z,33.97
2018-11-20T05:53:57.628Z,32.77
2018-11-20T05:56:46.550Z,33.13
2018-11-20T05:59:38.674Z,32.50
2018-11-20T06:02:33.249Z,33.27
2018-11-20T06:05:18.519Z,35.30
2018-11-20T06:08:18.890Z,34.53
2018-11-20T06:11:10.542Z,35.43
2018-11-20T06:14:02.495Z,36.20
2018-11-20T06:16:50.026Z,35.97
2018-11-20T06:19:38.826Z,40.13
2018-11-20T06:22:25.812Z,37.13
2018-11-20T06:25:19.834Z,36.67
2018-11-20T06:28:23.875Z,36.30
2018-11-20T06:31:27.733Z,34.40
2018-11-20T06:34:14.694Z,35.07
2018-11-20T06:37:11.396Z,35.87
2018-11-20T06:39:57.216Z,39.30
2018-11-20T06:42:46.032Z,32.87
2018-11-20T06:45:35.853Z,37.03
2018-11-20T06:48:43.674Z,33.37
2018-11-20T06:51:47.289Z,37.37
2018-11-20T06:54:34.435Z,35.33
2018-11-20T06:57:32.355Z,36.83
2018-11-20T07:00:20.239Z,37.03
2018-11-20T07:03:11.441Z,46.43
2018-11-20T07:06:00.349Z,36.13
2018-11-20T07:09:01.103Z,41.17
2018-11-20T07:11:55.436Z,35.87
2018-11-20T07:14:46.814Z,36.10
2018-11-20T07:17:37.657Z,38.23
2018-11-20T07:20:33.137Z,40.57
2018-11-20T07:23:20.609Z,38.30
2018-11-20T07:26:22.300Z,37.30
2018-11-20T07:29:23.332Z,38.53
2018-11-20T07:32:10.696Z,35.90
2018-11-20T07:34:58.022Z,36.27
2018-11-20T07:37:45.564Z,33.73
2018-11-20T07:40:39.749Z,36.53
2018-11-20T07:43:29.769Z,34.17
2018-11-20T07:46:23.993Z,30.53
2018-11-20T07:49:21.872Z,35.90
2018-11-20T07:52:28.663Z,32.77
2018-11-20T07:55:22.262Z,35.57
2018-11-20T07:58:09.681Z,34.07
2018-11-20T08:01:01.509Z,34.20
2018-11-20T08:03:53.313Z,30.90
2018-11-20T08:06:42.175Z,33.50
2018-11-20T08:09:23.848Z,34.40
2018-11-20T08:13:59.192Z,38.13
2018-11-20T08:16:43.184Z,35.23
2018-11-20T08:19:31.549Z,36.10
2018-11-20T08:22:37.879Z,33.97
2018-11-20T08:25:28.766Z,42.70
2018-11-20T08:28:29.416Z,36.90
2018-11-20T08:31:32.496Z,38.60
2018-11-20T08:34:35.612Z,38.07
2018-11-20T08:37:22.338Z,38.17
2018-11-20T08:40:21.126Z,35.90
2018-11-20T08:43:03.851Z,35.83
2018-11-20T08:45:50.344Z,38.57
2018-11-20T08:48:36.562Z,39.00
2018-11-20T08:51:24.338Z,35.10
2018-11-20T08:54:17.752Z,39.83
2018-11-20T08:57:05.817Z,36.60
2018-11-20T08:59:53.318Z,36.97
2018-11-20T09:02:41.448Z,34.57
2018-11-20T09:05:47.582Z,38.30
2018-11-20T09:08:44.847Z,37.20
2018-11-20T09:11:31.054Z,35.07
2018-11-20T09:14:18.930Z,33.60
2018-11-20T09:17:06.528Z,38.23
2018-11-20T09:19:54.360Z,37.27
2018-11-20T09:22:41.140Z,34.80
2018-11-20T09:25:27.711Z,39.93
2018-11-20T09:28:13.818Z,35.77
2018-11-20T09:31:07.635Z,35.63
2018-11-20T09:33:54.045Z,35.13
2018-11-20T09:36:40.882Z,33.57
2018-11-20T09:39:34.141Z,36.27
2018-11-20T09:42:16.480Z,32.30
2018-11-20T09:45:57.400Z,37.50
2018-11-20T09:48:38.068Z,37.37
2018-11-20T09:51:24.796Z,33.13
2018-11-20T09:54:12.345Z,33.13
2018-11-20T09:56:58.760Z,29.90
2018-11-20T09:59:40.113Z,30.43
2018-11-20T10:02:26.978Z,32.17
2018-11-20T10:05:17.365Z,38.17
2018-11-20T10:08:05.386Z,34.17
2018-11-20T10:10:58.953Z,35.00
2018-11-20T10:13:52.321Z,34.07
2018-11-20T10:16:40.586Z,29.90
2018-11-20T10:19:36.191Z,30.40
2018-11-20T10:22:19.203Z,31.60
2018-11-20T10:25:05.644Z,31.17
2018-11-20T10:27:56.108Z,27.47
2018-11-20T10:30:47.084Z,29.57
2018-11-20T10:33:49.750Z,31.73
2018-11-20T10:36:40.108Z,35.37
2018-11-20T10:39:38.525Z,27.73
2018-11-20T10:42:22.244Z,33.60
2018-11-20T10:45:09.774Z,29.23
2018-11-20T10:47:57.755Z,31.13
2018-11-20T10:50:44.332Z,27.40
2018-11-20T10:53:25.476Z,31.77
2018-11-20T10:56:13.469Z,30.10
2018-11-20T10:58:59.952Z,33.27
2018-11-20T11:01:47.557Z,32.43
2018-11-20T11:04:33.031Z,34.30
2018-11-20T11:07:20.761Z,34.00
2018-11-20T11:09:57.717Z,27.50
2018-11-20T11:12:46.188Z,27.53
2018-11-20T11:15:42.595Z,31.40
2018-11-20T11:18:33.226Z,33.03
2018-11-20T11:21:19.434Z,30.07
2018-11-20T11:24:25.824Z,31.17
2018-11-20T11:27:17.266Z,32.53
2018-11-20T11:30:03.559Z,28.80
2018-11-20T11:32:47.314Z,29.43
2018-11-20T11:35:40.821Z,32.93
2018-11-20T11:38:26.016Z,34.57
2018-11-20T11:41:17.355Z,31.83
2018-11-20T11:44:04.934Z,31.70
2018-11-20T11:47:01.969Z,27.97
2018-11-20T11:49:57.997Z,28.67
2018-11-20T11:52:44.789Z,33.17
2018-11-20T11:55:31.721Z,33.13
2018-11-20T11:58:22.595Z,29.70
2018-11-20T12:01:13.287Z,28.63
2018-11-20T12:04:12.408Z,28.13
2018-11-20T12:07:12.529Z,31.23
2018-11-20T12:09:49.102Z,31.77
2018-11-20T12:12:42.475Z,32.83
2018-11-20T12:15:24.476Z,29.63
2018-11-20T12:18:21.680Z,31.97
2018-11-20T12:21:16.568Z,32.03
2018-11-20T12:24:12.912Z,28.07
2018-11-20T12:27:02.673Z,31.90
2018-11-20T12:29:47.917Z,31.13
2018-11-20T12:32:33.805Z,28.17
2018-11-20T12:35:33.269Z,29.60
2018-11-20T12:38:24.912Z,32.03
2018-11-20T12:41:21.652Z,34.83
2018-11-20T12:44:08.472Z,32.33
2018-11-20T12:47:09.296Z,32.27
2018-11-20T12:49:46.950Z,31.33
2018-11-20T12:52:34.275Z,32.53
2018-11-20T12:55:21.039Z,31.47
2018-11-20T12:58:11.643Z,33.50
2018-11-20T13:00:50.252Z,27.53
2018-11-20T13:03:55.927Z,27.13
2018-11-20T13:06:44.123Z,28.70
2018-11-20T13:09:44.111Z,28.37
2018-11-20T13:12:37.793Z,29.63
2018-11-20T13:15:26.845Z,31.40
2018-11-20T13:18:28.898Z,29.90
2018-11-20T13:21:07.287Z,30.17
2018-11-20T13:23:53.985Z,31.90
2018-11-20T13:26:42.019Z,28.30
2018-11-20T13:29:28.671Z,30.57
2018-11-20T13:32:18.984Z,32.27
2018-11-20T13:35:05.037Z,30.70
2018-11-20T13:38:13.679Z,36.40
2018-11-20T13:41:37.723Z,31.77
2018-11-20T13:44:16.553Z,31.13
2018-11-20T13:47:04.104Z,33.10
2018-11-20T13:49:49.807Z,32.30
2018-11-20T13:52:40.567Z,32.07
2018-11-20T13:55:28.510Z,29.60
2018-11-20T13:58:19.389Z,30.13
2018-11-20T14:01:03.278Z,32.63
2018-11-20T14:04:01.938Z,32.93
2018-11-20T14:06:49.421Z,30.10
2018-11-20T14:09:39.492Z,31.93
2018-11-20T14:12:42.603Z,31.90
2018-11-20T14:15:39.237Z,36.53
2018-11-20T14:18:36.175Z,32.40
2018-11-20T14:21:23.841Z,31.60
2018-11-20T14:24:20.660Z,30.83
2018-11-20T14:27:17.379Z,33.60
2018-11-20T14:30:04.098Z,30.90
2018-11-20T14:32:57.986Z,32.00
2018-11-20T14:35:44.454Z,35.50
2018-11-20T14:38:31.018Z,34.20
2018-11-20T14:41:21.484Z,36.50
2018-11-20T14:44:07.769Z,37.07
2018-11-20T14:46:54.727Z,37.33
2018-11-20T14:49:41.715Z,38.00
2018-11-20T14:52:21.405Z,39.77
2018-11-20T14:55:09.435Z,37.00
2018-11-20T14:57:55.901Z,40.57
2018-11-20T15:00:59.617Z,39.80
2018-11-20T15:03:48.815Z,39.03
2018-11-20T15:06:46.511Z,39.80
2018-11-20T15:09:42.974Z,40.33
2018-11-20T15:12:31.627Z,41.83
2018-11-20T15:15:12.472Z,48.20
2018-11-20T15:17:51.564Z,43.30
2018-11-20T15:20:38.334Z,42.23
2018-11-20T15:23:24.205Z,40.73
2018-11-20T15:26:12.774Z,42.57
2018-11-20T15:29:03.505Z,45.63
2018-11-20T15:32:09.509Z,39.90
2018-11-20T15:34:46.630Z,44.93
2018-11-20T15:37:33.442Z,38.73
2018-11-20T15:40:20.050Z,41.23
2018-11-20T15:43:06.335Z,41.90
2018-11-20T15:45:52.506Z,44.77
2018-11-20T15:48:43.130Z,43.27
2018-11-20T15:51:31.645Z,41.37
2018-11-20T15:54:18.193Z,42.13
2018-11-20T15:57:14.721Z,39.57
2018-11-20T16:00:11.269Z,44.90
2018-11-20T16:03:06.415Z,40.53
2018-11-20T16:05:53.199Z,41.03
2018-11-20T16:08:56.475Z,46.10
2018-11-20T16:12:02.339Z,47.50
2018-11-20T16:14:48.497Z,42.60
2018-11-20T16:17:37.135Z,45.17
2018-11-20T16:20:33.550Z,53.10
2018-11-20T16:23:25.274Z,65.80
2018-11-20T16:26:31.820Z,52.77
2018-11-20T16:29:18.733Z,45.73
2018-11-20T16:32:05.589Z,50.03
2018-11-20T16:34:53.232Z,45.43
2018-11-20T16:37:39.906Z,43.87
2018-11-20T16:40:28.037Z,45.67
2018-11-20T16:43:14.777Z,50.67
2018-11-20T16:46:14.545Z,51.23
2018-11-20T16:49:05.821Z,51.27
2018-11-20T16:51:52.583Z,51.43
2018-11-20T16:54:38.937Z,50.70
2018-11-20T16:57:26.582Z,50.60
2018-11-20T17:00:28.463Z,48.30
2018-11-20T17:03:28.640Z,45.43
2018-11-20T17:06:16.676Z,55.97
2018-11-20T17:09:03.293Z,52.93
2018-11-20T17:11:49.809Z,49.53
2018-11-20T17:14:37.228Z,45.63
2018-11-20T17:17:24.688Z,50.90
2018-11-20T17:20:27.424Z,51.13
2018-11-20T17:23:34.054Z,50.93
2018-11-20T17:26:33.479Z,51.43
2018-11-20T17:29:20.024Z,50.93
2018-11-20T17:32:06.629Z,56.73
2018-11-20T17:34:53.187Z,52.67
2018-11-20T17:37:40.199Z,52.93
2018-11-20T17:40:29.427Z,55.27
2018-11-20T17:43:35.677Z,49.30
2018-11-20T17:46:38.467Z,51.40
2018-11-20T17:49:25.333Z,52.53
2018-11-20T17:52:11.691Z,57.53
2018-11-20T17:54:47.541Z,50.90
2018-11-20T17:57:33.734Z,53.23
2018-11-20T18:00:21.853Z,50.67
2018-11-20T18:03:12.737Z,48.67
2018-11-20T18:06:12.334Z,53.60
2018-11-20T18:08:59.056Z,53.53
2018-11-20T18:11:52.477Z,51.93
2018-11-20T18:14:39.613Z,51.03
2018-11-20T18:17:39.424Z,55.90
2018-11-20T18:20:22.470Z,47.83
2018-11-20T18:23:11.483Z,49.07
2018-11-20T18:25:58.080Z,47.07
2018-11-20T18:28:51.941Z,45.07
2018-11-20T18:31:35.925Z,43.80
2018-11-20T18:34:21.645Z,47.77
2018-11-20T18:37:27.568Z,43.40
2018-11-20T18:40:13.825Z,45.37
2018-11-20T18:43:01.175Z,46.13
2018-11-20T18:45:42.883Z,43.63
2018-11-20T18:48:36.763Z,44.43
2018-11-20T18:51:23.902Z,40.40
2018-11-20T18:54:26.971Z,46.77
2018-11-20T18:57:22.289Z,46.60
2018-11-20T19:00:08.665Z,42.47
2018-11-20T19:03:06.133Z,47.93
2018-11-20T19:05:54.371Z,43.03
2018-11-20T19:08:41.127Z,45.10
2018-11-20T19:11:38.162Z,44.00
2018-11-20T19:14:35.376Z,40.70
2018-11-20T19:17:23.611Z,45.77
2018-11-20T19:20:14.413Z,46.30
2018-11-20T19:23:21.458Z,48.40
2018-11-20T19:26:08.048Z,44.97
2018-11-20T19:28:54.726Z,41.90
2018-11-20T19:31:42.135Z,39.23
2018-11-20T19:34:23.875Z,44.60
2018-11-20T19:37:25.552Z,43.60
2018-11-20T19:40:12.237Z,40.63
2018-11-20T19:43:03.246Z,44.60
2018-11-20T19:45:50.274Z,38.87
2018-11-20T19:48:31.712Z,47.47
2018-11-20T19:51:19.871Z,40.40
2018-11-20T19:54:08.013Z,44.63
2018-11-20T19:57:05.342Z,44.37
2018-11-20T20:00:00.050Z,44.63
2018-11-20T20:03:02.867Z,43.53
2018-11-20T20:05:49.748Z,47.10
2018-11-20T20:08:42.138Z,46.03
2018-11-20T20:11:23.237Z,44.13
2018-11-20T20:14:10.884Z,44.20
2018-11-20T20:16:55.872Z,43.13
2018-11-20T20:19:42.425Z,46.13
2018-11-20T20:22:29.240Z,49.67
2018-11-20T20:25:16.019Z,47.57
2018-11-20T20:28:06.502Z,45.37
2018-11-20T20:30:57.024Z,44.53
2018-11-20T20:33:43.687Z,48.53
2018-11-20T20:36:34.924Z,43.50
2018-11-20T20:39:24.548Z,45.00
2018-11-20T20:42:25.206Z,50.80
2018-11-20T20:45:12.885Z,45.40
2018-11-20T20:48:18.989Z,45.60
2018-11-20T20:51:05.976Z,46.40
2018-11-20T20:54:06.757Z,44.37
2018-11-20T20:56:53.416Z,42.97
2018-11-20T21:00:00.115Z,49.37
2018-11-20T21:02:59.850Z,45.30
2018-11-20T21:06:02.765Z,46.03
2018-11-20T21:09:02.376Z,47.03
2018-11-20T21:11:50.620Z,50.10
2018-11-20T21:14:47.633Z,52.50
2018-11-20T21:17:41.950Z,52.17
2018-11-20T21:20:41.778Z,51.60
2018-11-20T21:23:28.793Z,49.60
2018-11-20T21:26:15.644Z,52.10
2018-11-20T21:29:02.871Z,56.27
2018-11-20T21:31:50.604Z,53.27
2018-11-20T21:34:55.180Z,55.90
2018-11-20T21:37:46.962Z,54.10
2018-11-20T21:40:41.539Z,52.30
2018-11-20T21:43:28.373Z,52.03
2018-11-20T21:46:29.707Z,48.07
2018-11-20T21:49:16.578Z,55.60
2018-11-20T21:52:07.579Z,45.80
2018-11-20T21:54:59.269Z,49.03
2018-11-20T21:57:46.908Z,49.33
2018-11-20T22:00:37.432Z,48.33
2018-11-20T22:03:20.666Z,46.43
2018-11-20T22:06:07.432Z,52.13
2018-11-20T22:09:08.104Z,49.03
2018-11-20T22:11:56.077Z,50.37
2018-11-20T22:14:46.877Z,48.73
2018-11-20T22:17:34.551Z,51.27
2018-11-20T22:20:21.210Z,45.03
2018-11-20T22:23:00.562Z,49.07
2018-11-20T22:25:47.132Z,47.60
2018-11-20T22:28:41.150Z,50.60
2018-11-20T22:31:28.826Z,48.07
2018-11-20T22:34:16.574Z,49.13
2018-11-20T22:37:22.871Z,48.83
2018-11-20T22:40:19.438Z,45.43
2018-11-20T22:43:00.442Z,48.20
2018-11-20T22:45:48.786Z,51.93
2018-11-20T22:48:42.279Z,48.90
2018-11-20T22:51:36.409Z,48.87
2018-11-20T22:54:36.700Z,50.87
2018-11-20T22:57:30.724Z,47.63
2018-11-20T23:00:17.830Z,48.20
2018-11-20T23:03:08.206Z,45.67
2018-11-20T23:05:53.193Z,44.27
2018-11-20T23:08:22.115Z,50.67
2018-11-20T23:10:51.101Z,47.67
2018-11-20T23:13:20.811Z,48.63
2018-11-20T23:15:49.281Z,46.67
2018-11-20T23:18:18.510Z,42.37
2018-11-20T23:20:47.141Z,49.47
2018-11-20T23:23:16.890Z,43.07
2018-11-20T23:25:45.449Z,48.37
2018-11-20T23:28:14.930Z,48.07
2018-11-20T23:30:44.262Z,50.30
2018-11-20T23:33:12.733Z,48.37
2018-11-20T23:35:41.752Z,43.67
2018-11-20T23:38:10.339Z,44.73
2018-11-20T23:40:39.632Z,46.10
2018-11-20T23:43:08.483Z,44.60
2018-11-20T23:45:37.513Z,48.83
2018-11-20T23:48:06.063Z,47.87
2018-11-20T23:50:35.005Z,45.13
2018-11-20T23:53:03.487Z,43.90
2018-11-20T23:55:31.963Z,42.90
2018-11-20T23:58:00.838Z,46.87
